Time;durP1;ratioP1;P1;durP2;ratioP2;P2;SDS_P1;SDS_P2;PMS_P1;PMS_P2;Temp;Humidity;BMP_temperature;BMP_pressure;BME280_temperature;BME280_humidity;BME280_pressure;Samples;Min_cycle;Max_cycle;Signal;HPM_P1;HPM_P2
2022/09/22 00:01:01;;;;;;;4.70;4.30;;;;;;;7.40;99.28;99288.64;1817638;78;21207;-79
2022/09/22 00:03:37;;;;;;;5.60;5.00;;;;;;;7.41;99.47;99289.07;1817474;78;21458;-79
2022/09/22 00:06:09;;;;;;;5.33;4.83;;;;;;;7.40;99.38;99289.95;1817919;78;21049;-79
2022/09/22 00:08:38;;;;;;;7.58;4.97;;;;;;;7.36;99.44;99288.33;1817651;78;21014;-78
2022/09/22 00:11:18;;;;;;;6.22;4.62;;;;;;;7.31;99.57;99287.55;1817670;77;21089;-78
2022/09/22 00:13:49;;;;;;;10.13;4.75;;;;;;;7.30;99.84;99293.70;1817847;78;21132;-79
2022/09/22 00:16:19;;;;;;;7.37;5.25;;;;;;;7.25;100.00;99292.96;1817562;78;20975;-78
2022/09/22 00:18:45;;;;;;;7.50;5.17;;;;;;;7.22;100.00;99296.50;1818309;77;21125;-78
2022/09/22 00:21:15;;;;;;;5.40;4.90;;;;;;;7.21;100.00;99297.84;1817952;77;21022;-79
2022/09/22 00:23:42;;;;;;;7.25;4.90;;;;;;;7.22;100.00;99299.57;1818068;78;20987;-78
2022/09/22 00:26:12;;;;;;;8.53;5.60;;;;;;;7.22;100.00;99298.27;1817720;77;22061;-80
2022/09/22 00:28:40;;;;;;;13.48;6.20;;;;;;;7.20;100.00;99292.22;1817975;77;21050;-80
2022/09/22 00:31:15;;;;;;;6.08;5.53;;;;;;;7.19;100.00;99293.95;1817820;78;21623;-78
2022/09/22 00:33:45;;;;;;;16.25;5.92;;;;;;;7.21;100.00;99297.84;1817996;78;20967;-80
2022/09/22 00:36:12;;;;;;;8.30;6.03;;;;;;;7.22;100.00;99295.65;1817945;78;21983;-79
2022/09/22 00:38:39;;;;;;;7.08;5.78;;;;;;;7.22;100.00;99303.50;1818008;77;21081;-78
2022/09/22 00:41:09;;;;;;;10.68;6.55;;;;;;;7.23;100.00;99298.69;1817614;78;21110;-78
2022/09/22 00:43:37;;;;;;;11.12;6.40;;;;;;;7.23;100.00;99293.45;1817715;78;21501;-78
2022/09/22 00:46:23;;;;;;;6.78;6.17;;;;;;;7.22;100.00;99293.03;1817835;78;21033;-79
2022/09/22 00:49:00;;;;;;;7.35;6.58;;;;;;;7.19;100.00;99296.56;1817505;78;21116;-79
2022/09/22 00:51:30;;;;;;;12.37;6.37;;;;;;;7.15;100.00;99294.94;1812149;77;21511;-78
2022/09/22 00:53:56;;;;;;;11.57;6.85;;;;;;;7.13;100.00;99291.93;1767396;81;21012;-79
2022/09/22 00:56:27;;;;;;;7.72;7.03;;;;;;;7.10;100.00;99294.19;1812072;79;20982;-79
2022/09/22 00:58:57;;;;;;;7.87;6.12;;;;;;;7.07;100.00;99295.11;1811669;79;21085;-79
2022/09/22 01:01:24;;;;;;;10.68;7.30;;;;;;;7.05;100.00;99297.37;1812038;79;21069;-79
2022/09/22 01:03:51;;;;;;;7.45;6.60;;;;;;;7.06;100.00;99298.64;1791357;79;21133;-78
2022/09/22 01:06:22;;;;;;;8.08;6.80;;;;;;;7.05;100.00;99296.91;1767583;80;21055;-78
2022/09/22 01:08:49;;;;;;;10.48;6.58;;;;;;;7.07;100.00;99296.41;1811762;79;20939;-77
2022/09/22 01:11:17;;;;;;;8.43;6.58;;;;;;;7.09;100.00;99292.91;1811761;78;21034;-79
2022/09/22 01:14:18;;;;;;;11.43;6.67;;;;;;;7.14;100.00;99295.82;1811754;79;20979;-78
2022/09/22 01:17:00;;;;;;;9.13;6.28;;;;;;;7.18;100.00;99291.40;1811803;79;21889;-79
2022/09/22 01:20:04;;;;;;;9.83;7.72;;;;;;;7.21;100.00;99288.69;1811719;79;21074;-79
2022/09/22 01:22:46;;;;;;;8.78;5.97;;;;;;;7.21;100.00;99301.34;1773093;78;21561;-79
2022/09/22 01:25:36;;;;;;;6.78;5.65;;;;;;;7.21;100.00;99299.15;1811083;78;22182;-79
2022/09/22 01:28:45;;;;;;;7.50;5.97;;;;;;;7.21;100.00;99296.53;1811472;78;21555;-79
2022/09/22 01:31:32;;;;;;;11.08;6.15;;;;;;;7.19;100.00;99293.10;1767514;81;21130;-79
2022/09/22 01:34:21;;;;;;;6.12;5.30;;;;;;;7.18;100.00;99292.71;1811709;79;21061;-80
2022/09/22 01:37:22;;;;;;;8.08;5.87;;;;;;;7.18;100.00;99294.87;1810714;78;21077;-79
2022/09/22 01:39:56;;;;;;;9.13;5.70;;;;;;;7.13;100.00;99296.73;1811704;78;21018;-79
2022/09/22 01:42:29;;;;;;;;;;;;;;;7.07;100.00;99299.03;1814428;79;21010;-78
2022/09/22 01:45:01;;;;;;;7.25;4.75;;;;;;;7.06;100.00;99295.14;1810978;78;21188;-79
2022/09/22 01:47:40;;;;;;;7.95;6.22;;;;;;;7.04;100.00;99295.20;1767177;80;21067;-79
2022/09/22 01:50:15;;;;;;;9.60;5.42;;;;;;;7.04;100.00;99297.82;1811877;78;21042;-79
2022/09/22 01:52:42;;;;;;;6.45;5.83;;;;;;;7.03;100.00;99292.63;1811951;78;21054;-79
2022/09/22 01:55:25;;;;;;;7.87;5.70;;;;;;;7.02;100.00;99289.12;1811730;79;21077;-78
2022/09/22 01:58:02;;;;;;;7.25;5.85;;;;;;;7.02;100.00;99293.05;1811819;79;21151;-79
2022/09/22 02:00:29;;;;;;;6.55;5.75;;;;;;;7.02;100.00;99293.51;1811624;78;21039;-79
2022/09/22 02:03:11;;;;;;;10.72;5.70;;;;;;;6.99;100.00;99285.73;1811630;78;21081;-79
2022/09/22 02:05:59;;;;;;;6.37;5.78;;;;;;;6.97;100.00;99296.23;1791357;79;21035;-79
2022/09/22 02:08:48;;;;;;;9.48;5.40;;;;;;;6.94;100.00;99300.21;1767297;81;21083;-79
2022/09/22 02:11:19;;;;;;;8.35;5.30;;;;;;;6.91;100.00;99289.85;1811766;79;21182;-79
2022/09/22 02:13:43;;;;;;;7.75;5.78;;;;;;;6.91;100.00;99300.31;1811073;78;20959;-79
2022/09/22 02:16:11;;;;;;;7.25;5.53;;;;;;;6.89;100.00;99295.54;1767249;80;21052;-78
2022/09/22 02:18:59;;;;;;;5.97;5.12;;;;;;;6.89;100.00;99290.31;1811765;79;21664;-80
2022/09/22 02:21:26;;;;;;;7.08;5.12;;;;;;;6.89;100.00;99292.92;1811584;78;21034;-78
2022/09/22 02:23:53;;;;;;;6.20;5.62;;;;;;;6.88;100.00;99284.23;1723540;81;21298;-78
2022/09/22 02:26:24;;;;;;;6.08;5.47;;;;;;;6.91;100.00;99285.93;1811897;79;21189;-80
2022/09/22 02:29:04;;;;;;;6.12;5.30;;;;;;;6.92;100.00;99289.39;1811825;79;21017;-78
2022/09/22 02:31:33;;;;;;;5.95;5.40;;;;;;;6.96;100.00;99291.02;1811793;79;21038;-79
2022/09/22 02:33:59;;;;;;;8.40;5.70;;;;;;;6.95;100.00;99282.33;1811766;79;21046;-79
2022/09/22 02:36:41;;;;;;;7.28;6.37;;;;;;;6.95;100.00;99284.95;1811670;79;21090;-80
2022/09/22 02:39:31;;;;;;;8.00;5.60;;;;;;;6.93;100.00;99283.28;1811761;78;22056;-79
2022/09/22 02:42:14;;;;;;;7.53;6.67;;;;;;;6.89;100.00;99279.84;1800598;79;21513;-80
2022/09/22 02:44:47;;;;;;;8.98;6.50;;;;;;;6.89;100.00;99281.16;1811738;79;20985;-79
2022/09/22 02:47:39;;;;;;;11.55;6.90;;;;;;;6.89;100.00;99279.84;1812108;78;21085;-79
2022/09/22 02:50:09;;;;;;;11.43;6.60;;;;;;;6.88;100.00;99273.77;1798261;77;21151;-79
2022/09/22 02:52:36;;;;;;;7.97;6.85;;;;;;;6.90;100.00;99275.04;1859691;77;21042;-78
2022/09/22 02:55:04;;;;;;;6.58;5.97;;;;;;;6.94;100.00;99275.37;1826747;77;21629;-79
2022/09/22 02:57:31;;;;;;;11.70;6.08;;;;;;;6.96;100.00;99276.22;1859778;77;21014;-79
2022/09/22 02:59:57;;;;;;;8.03;6.53;;;;;;;6.98;100.00;99270.49;1825386;78;21014;-79
2022/09/22 03:02:24;;;;;;;7.00;5.92;;;;;;;7.00;100.00;99269.15;1830950;78;21810;-79
2022/09/22 03:04:50;;;;;;;6.62;5.78;;;;;;;7.03;100.00;99270.39;1790801;80;21540;-78
2022/09/22 03:07:17;;;;;;;6.85;6.15;;;;;;;7.04;100.00;99272.97;1830997;78;21457;-80
2022/09/22 03:09:45;;;;;;;8.30;5.28;;;;;;;7.04;100.00;99273.40;1791141;80;21070;-79
2022/09/22 03:12:12;;;;;;;8.15;5.95;;;;;;;7.04;100.00;99279.52;1831072;78;21041;-79
2022/09/22 03:14:39;;;;;;;7.30;6.50;;;;;;;7.07;100.00;99286.41;1791129;80;21168;-80
2022/09/22 03:17:07;;;;;;;8.43;6.62;;;;;;;7.07;100.00;99288.56;1831066;78;21572;-78
2022/09/22 03:19:34;;;;;;;10.40;6.70;;;;;;;7.06;100.00;99288.17;1791091;80;21651;-80
2022/09/22 03:22:01;;;;;;;9.48;7.15;;;;;;;7.03;100.00;99289.55;1831067;78;21497;-80
2022/09/22 03:24:27;;;;;;;8.60;6.20;;;;;;;7.01;100.00;99281.31;1791050;80;21618;-79
2022/09/22 03:26:53;;;;;;;8.83;6.25;;;;;;;6.99;100.00;99281.38;1831042;78;21615;-79
2022/09/22 03:29:20;;;;;;;13.45;6.78;;;;;;;6.97;100.00;99283.15;1790852;80;21497;-79
2022/09/22 03:31:47;;;;;;;8.58;6.33;;;;;;;6.94;100.00;99283.21;1831152;78;21480;-79
2022/09/22 03:34:13;;;;;;;6.78;6.17;;;;;;;6.93;100.00;99284.13;1790905;80;21117;-78
2022/09/22 03:36:40;;;;;;;6.80;6.17;;;;;;;6.91;100.00;99288.55;1792469;80;21053;-79
2022/09/22 03:39:08;;;;;;;8.25;6.75;;;;;;;6.87;100.00;99292.11;1830906;78;21953;-79
2022/09/22 03:41:36;;;;;;;8.13;6.25;;;;;;;6.85;100.00;99293.91;1825127;78;21520;-79
2022/09/22 03:44:04;;;;;;;8.03;6.47;;;;;;;6.83;100.00;99293.94;1825350;78;21043;-78
2022/09/22 03:46:31;;;;;;;7.25;5.62;;;;;;;6.84;100.00;99300.02;1825322;78;21077;-79
2022/09/22 03:48:57;;;;;;;7.47;6.10;;;;;;;6.82;100.00;99302.66;1825290;78;21374;-79
2022/09/22 03:51:23;;;;;;;7.85;6.15;;;;;;;6.80;100.00;99303.16;1825023;78;21257;-79
2022/09/22 03:53:50;;;;;;;9.80;6.50;;;;;;;6.79;100.00;99301.88;1825372;78;21093;-79
2022/09/22 03:56:17;;;;;;;10.13;6.87;;;;;;;6.79;100.00;99301.88;1824890;78;21100;-79
2022/09/22 03:58:43;;;;;;;9.18;6.25;;;;;;;6.79;100.00;99310.61;1825132;78;21069;-79
2022/09/22 04:01:10;;;;;;;9.80;6.28;;;;;;;6.82;100.00;99314.89;1825706;78;21080;-79
2022/09/22 04:03:36;;;;;;;6.58;5.87;;;;;;;6.80;100.00;99306.23;1824922;78;21218;-79
2022/09/22 04:06:04;;;;;;;7.35;6.40;;;;;;;6.80;100.00;99306.23;1825106;78;21034;-79
2022/09/22 04:08:30;;;;;;;11.43;8.03;;;;;;;6.81;100.00;99305.34;1825174;78;21045;-79
2022/09/22 04:10:56;;;;;;;9.85;7.60;;;;;;;6.80;100.00;99310.15;1824984;78;20959;-79
2022/09/22 04:13:23;;;;;;;15.10;8.53;;;;;;;6.77;100.00;99303.67;1825597;78;21148;-80
2022/09/22 04:15:49;;;;;;;15.35;8.85;;;;;;;6.74;100.00;99307.23;1825298;78;21225;-80
2022/09/22 04:18:16;;;;;;;14.20;9.75;;;;;;;6.74;100.00;99306.35;1825232;78;21069;-78
2022/09/22 04:20:43;;;;;;;13.83;9.98;;;;;;;6.74;100.00;99314.20;1825318;78;21075;-79
2022/09/22 04:23:12;;;;;;;14.25;9.90;;;;;;;6.74;100.00;99311.58;1825240;78;21025;-79
2022/09/22 04:25:40;;;;;;;14.98;10.53;;;;;;;6.74;100.00;99315.08;1825011;78;20986;-79
2022/09/22 04:28:06;;;;;;;21.07;11.40;;;;;;;6.75;100.00;99313.31;1825237;78;21228;-79
2022/09/22 04:30:33;;;;;;;18.62;10.72;;;;;;;6.76;100.00;99315.90;1825220;78;21030;-79
2022/09/22 04:33:00;;;;;;;15.72;10.80;;;;;;;6.78;100.00;99314.56;1825253;78;21061;-80
2022/09/22 04:35:27;;;;;;;15.85;9.78;;;;;;;6.79;100.00;99320.19;1825510;78;21030;-79
2022/09/22 04:37:55;;;;;;;20.02;10.53;;;;;;;6.79;100.00;99314.95;1825091;78;20993;-79
2022/09/22 04:40:22;;;;;;;16.48;11.15;;;;;;;6.78;100.00;99313.25;1825181;78;21215;-79
2022/09/22 04:42:49;;;;;;;14.10;10.65;;;;;;;6.77;100.00;99316.75;1825130;78;21003;-79
2022/09/22 04:45:15;;;;;;;16.40;11.12;;;;;;;6.79;100.00;99314.95;1825177;78;20971;-80
2022/09/22 04:47:46;;;;;;;18.23;11.20;;;;;;;6.81;100.00;99314.50;1825342;78;21077;-79
2022/09/22 04:50:13;;;;;;;21.60;11.38;;;;;;;6.82;100.00;99317.05;1825333;78;21588;-79
2022/09/22 04:52:48;;;;;;;15.90;10.18;;;;;;;6.83;100.00;99316.63;1825051;78;21266;-80
2022/09/22 04:55:15;;;;;;;18.90;10.40;;;;;;;6.86;100.00;99323.09;1818252;78;21073;-81
2022/09/22 04:57:52;;;;;;;17.35;10.38;;;;;;;6.86;100.00;99322.64;1825544;78;21037;-79
2022/09/22 05:00:21;;;;;;;22.42;11.10;;;;;;;6.89;100.00;99323.00;1824934;78;21092;-78
2022/09/22 05:02:47;;;;;;;13.65;10.82;;;;;;;6.91;100.00;99327.77;1825705;78;20974;-80
2022/09/22 05:05:14;;;;;;;18.82;10.55;;;;;;;6.90;100.00;99331.27;1825187;78;21245;-80
2022/09/22 05:07:47;;;;;;;14.50;10.25;;;;;;;6.93;100.00;99329.05;1825545;78;21543;-80
2022/09/22 05:10:16;;;;;;;13.10;10.55;;;;;;;6.96;100.00;99330.26;1825164;78;21037;-79
2022/09/22 05:12:43;;;;;;;11.88;9.80;;;;;;;6.97;100.00;99329.38;1825393;78;21061;-80
2022/09/22 05:15:12;;;;;;;11.97;9.80;;;;;;;6.99;100.00;99327.58;1825272;78;21041;-79
2022/09/22 05:17:48;;;;;;;17.07;10.70;;;;;;;7.00;100.00;99330.16;1825610;78;21061;-80
2022/09/22 05:20:15;;;;;;;19.15;10.32;;;;;;;7.05;100.00;99337.45;1825306;78;21021;-79
2022/09/22 05:22:42;;;;;;;17.32;10.03;;;;;;;7.07;100.00;99342.20;1825413;78;21065;-81
2022/09/22 05:25:10;;;;;;;12.30;9.28;;;;;;;7.10;100.00;99346.52;1825547;78;20962;-80
2022/09/22 05:27:46;;;;;;;14.00;9.38;;;;;;;7.11;100.00;99348.67;1825166;78;21001;-80
2022/09/22 05:30:13;;;;;;;14.28;9.38;;;;;;;7.13;100.00;99347.76;1825373;78;21121;-79
2022/09/22 05:32:44;;;;;;;12.60;9.10;;;;;;;7.16;100.00;99346.80;1825185;78;21578;-80
2022/09/22 05:35:12;;;;;;;10.38;8.78;;;;;;;7.18;100.00;99349.81;1825539;78;21389;-79
2022/09/22 05:37:45;;;;;;;10.50;8.60;;;;;;;7.19;100.00;99355.44;1825350;78;21112;-80
2022/09/22 05:40:12;;;;;;;19.40;8.43;;;;;;;7.18;100.00;99355.50;1825577;78;21006;-79
2022/09/22 05:42:46;;;;;;;10.60;8.38;;;;;;;7.17;100.00;99357.70;1825235;78;21804;-79
2022/09/22 05:45:13;;;;;;;11.20;8.08;;;;;;;7.18;100.00;99348.97;1825319;78;21442;-79
2022/09/22 05:47:40;;;;;;;13.08;8.78;;;;;;;7.19;100.00;99358.52;1825168;78;21470;-80
2022/09/22 05:50:07;;;;;;;9.90;8.40;;;;;;;7.19;100.00;99353.28;1825129;78;21722;-79
2022/09/22 05:52:34;;;;;;;11.88;8.45;;;;;;;7.19;100.00;99355.90;1820374;78;21042;-78
2022/09/22 05:55:00;;;;;;;11.25;9.28;;;;;;;7.21;100.00;99349.75;1817825;77;21824;-79
2022/09/22 05:57:27;;;;;;;11.90;9.18;;;;;;;7.25;100.00;99355.77;1817910;77;21060;-79
2022/09/22 05:59:54;;;;;;;12.25;9.30;;;;;;;7.29;100.00;99352.63;1817584;77;21073;-78
2022/09/22 06:02:22;;;;;;;13.38;9.73;;;;;;;7.31;100.00;99354.75;1817921;78;21076;-79
2022/09/22 06:04:49;;;;;;;12.05;10.55;;;;;;;7.34;100.00;99355.53;1817795;78;21050;-77
2022/09/22 06:07:15;;;;;;;11.68;8.88;;;;;;;7.34;100.00;99352.91;1817820;77;21176;-80
2022/09/22 06:09:43;;;;;;;15.20;9.90;;;;;;;7.38;100.00;99357.20;1817595;77;21015;-80
2022/09/22 06:12:10;;;;;;;13.25;9.95;;;;;;;7.44;100.00;99358.80;1817745;78;21006;-79
2022/09/22 06:14:38;;;;;;;14.35;9.80;;;;;;;7.47;100.00;99353.95;1817739;78;21561;-79
2022/09/22 06:17:09;;;;;;;16.02;9.58;;;;;;;7.48;100.00;99359.14;1818036;78;21461;-78
2022/09/22 06:19:34;;;;;;;12.75;8.98;;;;;;;7.50;100.00;99356.46;1817762;77;21156;-79
2022/09/22 06:22:01;;;;;;;12.65;9.10;;;;;;;7.52;100.00;99358.62;1817691;78;20963;-78
2022/09/22 06:24:28;;;;;;;14.83;9.40;;;;;;;7.55;100.00;99354.62;1817998;78;21489;-78
2022/09/22 06:26:55;;;;;;;10.15;8.88;;;;;;;7.60;100.00;99357.98;1818006;77;21584;-79
2022/09/22 06:29:22;;;;;;;11.70;9.35;;;;;;;7.63;100.00;99358.76;1817885;78;20998;-79
2022/09/22 06:31:49;;;;;;;12.10;9.40;;;;;;;7.67;100.00;99355.61;1817790;78;21083;-79
2022/09/22 06:34:16;;;;;;;14.20;9.28;;;;;;;7.71;100.00;99355.93;1817934;78;21013;-79
2022/09/22 06:36:44;;;;;;;11.55;8.88;;;;;;;7.74;100.00;99349.77;1817659;78;21050;-78
2022/09/22 06:39:11;;;;;;;9.38;8.38;;;;;;;7.77;100.00;99354.47;1818362;78;21125;-79
2022/09/22 06:41:38;;;;;;;9.68;7.67;;;;;;;7.80;100.00;99347.84;1817660;77;21029;-78
2022/09/22 06:44:07;;;;;;;8.93;7.20;;;;;;;7.87;100.00;99358.14;1817908;77;21119;-79
2022/09/22 06:46:35;;;;;;;9.63;7.62;;;;;;;7.92;100.00;99358.92;1817677;77;21010;-78
2022/09/22 06:49:02;;;;;;;10.72;6.85;;;;;;;7.95;100.00;99364.05;1817797;77;21492;-79
2022/09/22 06:51:31;;;;;;;7.75;6.60;;;;;;;7.98;100.00;99362.66;1820988;77;21100;-79
2022/09/22 06:54:00;;;;;;;13.10;8.48;;;;;;;8.07;100.00;99358.94;1859695;77;22026;-78
2022/09/22 06:56:27;;;;;;;18.90;9.10;;;;;;;8.19;100.00;99367.33;1860048;77;21096;-78
2022/09/22 06:58:57;;;;;;;11.00;8.98;;;;;;;8.25;100.00;99365.44;1859920;77;21078;-79
2022/09/22 07:01:24;;;;;;;9.88;8.08;;;;;;;8.28;100.00;99367.98;1859768;77;21018;-79
2022/09/22 07:03:51;;;;;;;10.95;8.08;;;;;;;8.31;100.00;99367.91;1860353;77;21915;-79
2022/09/22 07:06:18;;;;;;;9.88;7.83;;;;;;;8.37;100.00;99367.72;1859724;77;21423;-78
2022/09/22 07:08:46;;;;;;;9.03;7.53;;;;;;;8.38;100.00;99362.43;1859942;77;21577;-79
2022/09/22 07:11:16;;;;;;;10.48;7.62;;;;;;;8.41;100.00;99356.25;1859565;77;21046;-78
2022/09/22 07:13:44;;;;;;;14.60;8.25;;;;;;;8.44;100.00;99366.69;1860089;77;21081;-78
2022/09/22 07:16:16;;;;;;;8.78;6.90;;;;;;;8.47;100.00;99363.99;1859956;77;21035;-79
2022/09/22 07:18:54;;;;;;;13.80;7.47;;;;;;;8.50;100.00;99369.13;1859644;77;21097;-78
2022/09/22 07:21:26;;;;;;;7.45;6.53;;;;;;;8.53;100.00;99369.04;1860244;77;21466;-79
2022/09/22 07:23:54;;;;;;;8.53;7.40;;;;;;;8.54;100.00;99370.77;1859884;77;21112;-80
2022/09/22 07:26:27;;;;;;;9.48;7.30;;;;;;;8.57;100.00;99371.58;1859624;77;21552;-78
2022/09/22 07:28:57;;;;;;;8.75;7.20;;;;;;;8.59;100.00;99369.77;1859805;77;21034;-78
2022/09/22 07:31:25;;;;;;;6.65;6.10;;;;;;;8.62;100.00;99370.53;1859583;77;21462;-79
2022/09/22 07:33:52;;;;;;;6.58;5.97;;;;;;;8.68;100.00;99369.52;1860171;77;22590;-79
2022/09/22 07:36:21;;;;;;;6.83;5.78;;;;;;;8.77;100.00;99369.23;1859678;77;21006;-78
2022/09/22 07:38:50;;;;;;;5.75;5.22;;;;;;;8.85;100.00;99364.61;1859759;77;21089;-80
2022/09/22 07:41:21;;;;;;;5.83;5.30;;;;;;;8.92;100.00;99366.14;1860170;77;20971;-78
2022/09/22 07:43:50;;;;;;;6.55;4.80;;;;;;;9.01;100.00;99365.45;1859098;76;21081;-80
2022/09/22 07:46:17;;;;;;;5.20;4.80;;;;;;;9.09;100.00;99364.77;1859965;77;21765;-79
2022/09/22 07:51:19;;;;;;;5.42;4.92;;;;;;;9.14;100.00;99362.86;1859719;77;21062;-79
2022/09/22 07:54:06;;;;;;;6.37;4.92;;;;;;;9.14;100.00;99361.55;1840235;77;20988;-78
2022/09/22 07:56:34;;;;;;;5.30;4.80;;;;;;;9.11;100.00;99365.58;1837548;78;21648;-79
2022/09/22 07:59:09;;;;;;;7.95;5.10;;;;;;;9.08;100.00;99364.38;1837768;77;21238;-78
2022/09/22 08:01:33;;;;;;;5.12;4.58;;;;;;;9.07;100.00;99364.81;1836860;77;20985;-78
2022/09/22 08:03:59;;;;;;;5.42;4.92;;;;;;;9.10;100.00;99359.48;1837729;78;21052;-79
2022/09/22 08:06:27;;;;;;;4.92;4.53;;;;;;;9.16;100.00;99359.73;1837164;77;20972;-78
2022/09/22 08:08:55;;;;;;;7.40;4.20;;;;;;;9.20;100.00;99352.18;1837620;78;20984;-79
2022/09/22 08:11:25;;;;;;;4.10;3.70;;;;;;;9.28;100.00;99362.45;1837497;77;21131;-79
2022/09/22 08:13:56;;;;;;;3.90;3.60;;;;;;;9.33;100.00;99353.09;1837234;77;21087;-79
2022/09/22 08:16:27;;;;;;;3.87;3.58;;;;;;;9.38;99.83;99345.92;1837948;78;21037;-79
2022/09/22 08:18:54;;;;;;;4.58;3.80;;;;;;;9.45;99.72;99352.72;1837398;77;21470;-79
2022/09/22 08:21:22;;;;;;;4.78;4.37;;;;;;;9.56;99.68;99354.51;1837716;78;21047;-78
2022/09/22 08:23:51;;;;;;;5.37;4.55;;;;;;;9.66;98.65;99352.44;1837537;78;21437;-78
2022/09/22 08:26:21;;;;;;;5.90;5.30;;;;;;;9.72;98.57;99354.03;1837340;78;21641;-79
2022/09/22 08:28:52;;;;;;;6.90;5.65;;;;;;;9.77;97.92;99352.95;1837541;78;20996;-79
2022/09/22 08:31:21;;;;;;;10.80;5.35;;;;;;;9.80;96.90;99357.22;1837505;78;21079;-79
2022/09/22 08:33:48;;;;;;;5.30;4.90;;;;;;;9.79;96.36;99354.21;1837705;78;21079;-79
2022/09/22 08:36:15;;;;;;;4.92;4.53;;;;;;;9.81;95.88;99362.42;1837773;78;21194;-79
2022/09/22 08:38:47;;;;;;;5.83;5.10;;;;;;;9.85;95.73;99357.92;1837361;77;21086;-78
2022/09/22 08:41:39;;;;;;;4.87;4.45;;;;;;;9.92;95.47;99362.52;1837924;76;21047;-79
2022/09/22 08:44:21;;;;;;;5.97;4.45;;;;;;;10.00;94.99;99357.42;1838047;78;21023;-79
2022/09/22 08:46:48;;;;;;;4.40;4.00;;;;;;;10.10;93.84;99363.66;1837523;78;21026;-80
2022/09/22 08:52:40;;;;;;;4.47;4.08;;;;;;;10.17;92.98;99353.31;1832394;77;20956;-78
2022/09/22 08:55:15;;;;;;;4.60;4.20;;;;;;;10.28;91.87;99351.17;1811655;79;20990;-79
2022/09/22 08:58:07;;;;;;;4.42;4.03;;;;;;;10.33;91.66;99353.20;1811634;78;21089;-80
2022/09/22 09:00:38;;;;;;;4.92;4.42;;;;;;;10.38;91.16;99353.90;1741014;81;21518;-79
2022/09/22 09:03:55;;;;;;;5.70;4.67;;;;;;;10.43;90.10;99351.58;1811941;79;21232;-79
2022/09/22 09:06:42;;;;;;;4.87;3.95;;;;;;;10.43;90.18;99356.83;1812070;79;21666;-79
2022/09/22 09:09:41;;;;;;;4.67;4.28;;;;;;;10.46;89.35;99355.41;1811454;78;21022;-79
2022/09/22 09:12:43;;;;;;;3.60;3.40;;;;;;;10.40;89.20;99359.95;1812091;78;21540;-78
2022/09/22 09:15:33;;;;;;;3.42;3.12;;;;;;;10.38;88.45;99364.41;1811730;78;20995;-79
2022/09/22 09:18:02;;;;;;;3.62;3.20;;;;;;;10.38;88.92;99360.47;1767536;81;21151;-78
2022/09/22 09:20:39;;;;;;;7.22;3.98;;;;;;;10.47;89.42;99362.37;1812015;79;22249;-78
2022/09/22 09:23:18;;;;;;;3.60;3.08;;;;;;;10.56;88.96;99360.73;1811873;79;21031;-78
2022/09/22 09:25:48;;;;;;;3.30;2.72;;;;;;;10.57;87.88;99355.84;1811726;78;21517;-79
2022/09/22 09:28:22;;;;;;;3.62;2.92;;;;;;;10.57;87.51;99365.94;1812331;79;21113;-78
2022/09/22 09:30:51;;;;;;;3.10;2.90;;;;;;;10.57;87.14;99361.99;1810636;78;21133;-79
2022/09/22 09:33:42;;;;;;;3.87;3.30;;;;;;;10.54;87.50;99349.38;1812009;79;21018;-80
2022/09/22 09:36:14;;;;;;;2.70;2.60;;;;;;;10.59;88.05;99357.95;1811684;79;21553;-78
2022/09/22 09:38:49;;;;;;;2.90;2.70;;;;;;;10.70;88.17;99361.05;1812118;79;21066;-80
2022/09/22 09:41:32;;;;;;;2.70;2.50;;;;;;;10.82;87.10;99362.36;1811979;79;27275;-79
2022/09/22 09:43:59;;;;;;;2.40;2.20;;;;;;;10.82;84.70;99358.88;1812140;78;21858;-78
2022/09/22 09:46:48;;;;;;;2.65;2.42;;;;;;;10.72;83.34;99364.48;1811678;79;22040;-79
2022/09/22 09:49:19;;;;;;;3.92;2.87;;;;;;;10.63;83.56;99364.84;1811894;79;21082;-79
2022/09/22 09:51:48;;;;;;;3.15;2.90;;;;;;;10.56;84.40;99365.99;1811794;78;21493;-77
2022/09/22 09:54:16;;;;;;;2.87;2.67;;;;;;;10.57;85.34;99361.11;1850174;77;21021;-79
2022/09/22 09:57:13;;;;;;;3.15;2.95;;;;;;;10.64;85.86;99363.94;1859714;77;22722;-77
2022/09/22 10:02:39;;;;;;;2.72;2.58;;;;;;;10.70;85.16;99366.31;1859553;77;21035;-78
2022/09/22 10:05:18;;;;;;;2.25;2.15;;;;;;;10.69;84.07;99365.05;1858430;77;21069;-79
2022/09/22 10:07:49;;;;;;;2.62;2.50;;;;;;;10.67;84.76;99370.38;1859938;77;21031;-78
2022/09/22 10:10:32;;;;;;;3.05;2.83;;;;;;;10.64;84.62;99363.94;1858369;77;21239;-79
2022/09/22 10:13:08;;;;;;;2.92;2.72;;;;;;;10.63;85.17;99367.47;1859864;77;21569;-78
2022/09/22 10:15:37;;;;;;;8.13;2.75;;;;;;;10.61;84.63;99364.05;1859942;77;21097;-78
2022/09/22 10:18:27;;;;;;;3.47;3.17;;;;;;;10.58;85.10;99368.10;1859765;77;21042;-78
2022/09/22 10:21:17;;;;;;;4.03;3.17;;;;;;;10.57;85.90;99377.78;1859814;77;20987;-78
2022/09/22 10:23:56;;;;;;;3.30;3.00;;;;;;;10.56;86.00;99377.83;1859122;76;21100;-78
2022/09/22 10:26:29;;;;;;;3.25;3.05;;;;;;;10.50;87.04;99378.89;1859652;77;21018;-79
2022/09/22 10:29:17;;;;;;;3.40;3.10;;;;;;;10.40;87.33;99378.83;1860128;77;20971;-78
2022/09/22 10:32:16;;;;;;;3.27;3.08;;;;;;;10.32;88.36;99387.02;1859708;77;21048;-78
2022/09/22 10:34:45;;;;;;;3.65;3.15;;;;;;;10.26;88.62;99383.24;1859759;77;21643;-79
2022/09/22 10:37:15;;;;;;;7.20;3.10;;;;;;;10.17;89.09;99381.80;1859714;77;21235;-78
2022/09/22 10:39:59;;;;;;;3.42;3.12;;;;;;;10.14;89.95;99383.22;1859884;77;21073;-78
2022/09/22 10:42:42;;;;;;;3.50;3.20;;;;;;;10.12;90.67;99385.05;1859888;77;21058;-78
2022/09/22 10:45:17;;;;;;;12.68;3.65;;;;;;;10.08;91.55;99390.46;1860060;77;21061;-77
2022/09/22 10:48:15;;;;;;;3.58;3.27;;;;;;;10.07;92.34;99387.41;1859671;77;21030;-76
2022/09/22 10:51:11;;;;;;;4.00;3.67;;;;;;;10.14;93.23;99383.22;1801856;79;21101;-77
2022/09/22 10:54:13;;;;;;;3.70;3.40;;;;;;;10.30;93.69;99377.41;1843876;77;20963;-78
2022/09/22 10:56:43;;;;;;;3.75;3.15;;;;;;;10.43;93.75;99383.13;1837741;77;21098;-78
2022/09/22 10:59:32;;;;;;;5.28;3.10;;;;;;;10.51;92.72;99381.09;1837452;78;21044;-78
2022/09/22 11:02:34;;;;;;;5.45;3.40;;;;;;;10.51;92.07;99375.83;1837341;78;21038;-78
2022/09/22 11:14:34;;;;;;;3.12;2.92;;;;;;;10.95;91.34;99360.98;1837807;78;21091;-78
2022/09/22 11:17:56;;;;;;;3.30;3.00;;;;;;;10.96;90.23;99353.93;1831348;78;21039;-78
2022/09/22 11:20:44;;;;;;;3.75;3.33;;;;;;;10.96;90.06;99356.56;1837911;77;21074;-79
2022/09/22 11:23:41;;;;;;;5.22;3.37;;;;;;;10.97;89.54;99360.92;1836580;77;21098;-78
2022/09/22 11:26:48;;;;;;;4.20;3.40;;;;;;;11.00;89.60;99358.17;1837702;77;21043;-78
2022/09/22 11:29:43;;;;;;;3.80;3.50;;;;;;;11.00;88.91;99351.59;1837382;78;21478;-78
2022/09/22 11:32:53;;;;;;;4.30;3.75;;;;;;;11.00;89.18;99350.28;1837693;77;21122;-79
2022/09/22 11:35:58;;;;;;;3.37;3.08;;;;;;;11.02;89.20;99351.06;1837580;78;21130;-79
2022/09/22 11:38:39;;;;;;;3.15;2.80;;;;;;;11.09;89.44;99346.42;1837558;78;21036;-79
2022/09/22 11:41:39;;;;;;;2.83;2.62;;;;;;;11.10;88.56;99349.00;1837220;77;21050;-78
2022/09/22 11:44:37;;;;;;;2.77;2.58;;;;;;;11.08;87.60;99346.89;1837639;77;21027;-78
2022/09/22 11:47:19;;;;;;;4.17;3.02;;;;;;;11.11;87.99;99345.45;1836761;77;21031;-78
2022/09/22 11:50:13;;;;;;;3.00;2.72;;;;;;;11.18;86.24;99337.29;1837496;77;21522;-78
2022/09/22 11:53:06;;;;;;;4.33;2.65;;;;;;;11.25;86.29;99340.10;1837739;78;21569;-79
2022/09/22 11:56:11;;;;;;;3.25;3.00;;;;;;;11.36;85.11;99339.19;1842749;77;21118;-79
2022/09/22 11:58:39;;;;;;;3.45;2.90;;;;;;;11.44;85.48;99339.73;1843265;77;21059;-78
2022/09/22 12:01:09;;;;;;;4.03;2.90;;;;;;;11.51;85.69;99345.61;1843249;77;20996;-79
2022/09/22 12:03:40;;;;;;;3.20;3.00;;;;;;;11.52;84.65;99344.23;1843181;77;21200;-79
2022/09/22 12:06:11;;;;;;;3.47;2.50;;;;;;;11.50;84.14;99339.96;1841935;77;21530;-79
2022/09/22 12:09:01;;;;;;;8.53;4.67;;;;;;;11.54;84.69;99341.53;1843247;77;21039;-79
2022/09/22 12:11:28;;;;;;;2.87;2.58;;;;;;;11.60;84.98;99343.05;1843181;77;21047;-79
2022/09/22 12:13:54;;;;;;;2.83;2.40;;;;;;;11.69;83.97;99338.25;1842968;77;21038;-79
2022/09/22 12:17:01;;;;;;;2.83;2.50;;;;;;;11.75;83.81;99334.52;1843500;77;21096;-80
2022/09/22 12:20:07;;;;;;;3.85;2.37;;;;;;;11.84;83.09;99335.91;1843180;77;21462;-79
2022/09/22 12:22:42;;;;;;;2.40;2.30;;;;;;;11.92;82.55;99338.23;1842855;77;20998;-78